createdAt,value
2022-11-18T00:01:10.297Z,59.50
2022-11-18T00:03:37.783Z,60.00
2022-11-18T00:06:05.887Z,59.80
2022-11-18T00:08:34.261Z,60.30
2022-11-18T00:11:08.905Z,60.60
2022-11-18T00:13:55.854Z,60.90
2022-11-18T00:16:22.757Z,60.40
2022-11-18T00:18:49.606Z,60.70
2022-11-18T00:21:16.596Z,60.70
2022-11-18T00:23:43.489Z,61.00
2022-11-18T00:26:13.119Z,61.20
2022-11-18T00:28:41.193Z,60.80
2022-11-18T00:31:10.759Z,60.90
2022-11-18T00:33:38.317Z,61.30
2022-11-18T00:36:07.159Z,60.60
2022-11-18T00:38:34.135Z,61.00
2022-11-18T00:41:13.065Z,60.80
2022-11-18T00:43:40.892Z,61.70
2022-11-18T00:46:10.548Z,60.90
2022-11-18T00:48:38.096Z,61.60
2022-11-18T00:51:15.459Z,61.00
2022-11-18T00:53:42.926Z,61.10
2022-11-18T00:56:10.467Z,61.10
2022-11-18T00:58:37.591Z,61.10
2022-11-18T01:01:05.396Z,61.20
2022-11-18T01:03:32.319Z,61.20
2022-11-18T01:05:59.155Z,61.00
2022-11-18T01:08:26.182Z,60.80
2022-11-18T01:10:53.619Z,61.50
2022-11-18T01:13:23.877Z,61.60
2022-11-18T01:15:58.629Z,60.70
2022-11-18T01:18:28.585Z,60.60
2022-11-18T01:21:00.778Z,61.70
2022-11-18T01:23:27.708Z,60.60
2022-11-18T01:25:54.664Z,61.00
2022-11-18T01:28:23.903Z,60.90
2022-11-18T01:30:51.049Z,60.00
2022-11-18T01:33:17.967Z,61.10
2022-11-18T01:35:45.194Z,60.50
2022-11-18T01:38:14.084Z,60.50
2022-11-18T01:40:41.611Z,61.30
2022-11-18T01:43:17.463Z,60.50
2022-11-18T01:45:46.200Z,60.80
2022-11-18T01:48:35.145Z,60.70
2022-11-18T01:51:29.192Z,60.80
2022-11-18T01:54:24.333Z,61.20
2022-11-18T01:56:54.813Z,61.10
2022-11-18T01:59:25.570Z,61.00
2022-11-18T02:01:58.240Z,61.10
2022-11-18T02:04:27.746Z,61.40
2022-11-18T02:06:55.222Z,61.10
2022-11-18T02:09:22.787Z,61.00
2022-11-18T02:11:56.428Z,62.50
2022-11-18T02:14:45.402Z,61.00
2022-11-18T02:17:27.994Z,60.30
2022-11-18T02:20:09.664Z,61.00
2022-11-18T02:23:02.541Z,61.80
2022-11-18T02:25:37.983Z,61.00
2022-11-18T02:28:25.071Z,61.10
2022-11-18T02:31:03.528Z,61.50
2022-11-18T02:34:10.536Z,61.50
2022-11-18T02:36:59.128Z,61.10
2022-11-18T02:39:36.559Z,61.20
2022-11-18T02:42:08.796Z,61.70
2022-11-18T02:44:38.491Z,61.40
2022-11-18T02:47:11.531Z,61.90
2022-11-18T02:49:43.441Z,61.90
2022-11-18T02:52:12.977Z,61.30
2022-11-18T02:54:42.267Z,61.60
2022-11-18T02:57:10.062Z,61.70
2022-11-18T02:59:36.990Z,61.50
2022-11-18T03:02:04.106Z,61.70
2022-11-18T03:04:32.797Z,61.90
2022-11-18T03:07:11.991Z,61.90
2022-11-18T03:09:42.465Z,61.40
2022-11-18T03:12:22.861Z,61.90
2022-11-18T03:14:52.627Z,62.70
2022-11-18T03:17:38.149Z,61.60
2022-11-18T03:20:12.468Z,61.90
2022-11-18T03:22:48.732Z,61.90
2022-11-18T03:25:38.109Z,62.00
2022-11-18T03:28:32.319Z,61.90
2022-11-18T03:31:16.245Z,61.80
2022-11-18T03:33:47.611Z,61.90
2022-11-18T03:36:16.778Z,62.00
2022-11-18T03:38:48.347Z,62.10
2022-11-18T03:41:18.846Z,61.90
2022-11-18T03:44:01.845Z,61.90
2022-11-18T03:46:39.060Z,62.40
2022-11-18T03:49:11.079Z,61.80
2022-11-18T03:51:44.711Z,62.10
2022-11-18T03:54:23.440Z,61.70
2022-11-18T03:57:07.125Z,61.60
2022-11-18T03:59:38.724Z,61.90
2022-11-18T04:02:15.606Z,61.90
2022-11-18T04:04:43.713Z,62.20
2022-11-18T04:07:33.079Z,62.00
2022-11-18T04:10:04.129Z,62.00
2022-11-18T04:12:35.337Z,62.20
2022-11-18T04:15:02.125Z,61.90
2022-11-18T04:17:29.270Z,62.20
2022-11-18T04:19:56.218Z,62.00
2022-11-18T04:22:23.168Z,61.90
2022-11-18T04:24:50.026Z,62.30
2022-11-18T04:27:16.838Z,62.40
2022-11-18T04:29:43.609Z,62.20
2022-11-18T04:32:10.452Z,62.00
2022-11-18T04:34:37.377Z,62.30
2022-11-18T04:37:04.207Z,62.40
2022-11-18T04:39:31.060Z,62.20
2022-11-18T04:41:58.124Z,62.70
2022-11-18T04:44:30.229Z,63.00
2022-11-18T04:46:59.138Z,62.10
2022-11-18T04:49:27.023Z,62.10
2022-11-18T04:51:54.464Z,62.20
2022-11-18T04:54:22.231Z,62.30
2022-11-18T04:56:49.924Z,62.20
2022-11-18T04:59:20.745Z,62.10
2022-11-18T05:01:48.760Z,62.60
2022-11-18T05:04:18.269Z,62.30
2022-11-18T05:06:45.805Z,61.90
2022-11-18T05:09:13.073Z,61.90
2022-11-18T05:11:58.662Z,62.20
2022-11-18T05:14:32.181Z,62.20
2022-11-18T05:17:00.882Z,62.60
2022-11-18T05:19:27.782Z,62.20
2022-11-18T05:21:54.759Z,62.70
2022-11-18T05:24:24.111Z,62.30
2022-11-18T05:26:52.632Z,62.40
2022-11-18T05:29:20.578Z,62.50
2022-11-18T05:31:48.612Z,62.80
2022-11-18T05:34:16.577Z,62.20
2022-11-18T05:36:43.454Z,62.70
2022-11-18T05:39:10.588Z,61.90
2022-11-18T05:41:55.999Z,62.20
2022-11-18T05:44:22.906Z,61.80
2022-11-18T05:46:49.716Z,62.30
2022-11-18T05:49:16.863Z,61.00
2022-11-18T05:51:43.819Z,62.10
2022-11-18T05:54:14.280Z,62.30
2022-11-18T05:56:44.974Z,62.40
2022-11-18T05:59:12.421Z,63.60
2022-11-18T06:02:03.135Z,63.00
2022-11-18T06:04:29.934Z,63.10
2022-11-18T06:07:05.041Z,60.80
2022-11-18T06:09:35.998Z,59.80
2022-11-18T06:12:04.396Z,60.00
2022-11-18T06:14:44.733Z,60.10
2022-11-18T06:17:20.372Z,60.50
2022-11-18T06:19:47.358Z,60.70
2022-11-18T06:22:14.568Z,60.90
2022-11-18T06:24:42.950Z,62.10
2022-11-18T06:27:10.065Z,62.90
2022-11-18T06:29:36.925Z,61.90
2022-11-18T06:32:03.828Z,62.50
2022-11-18T06:34:42.003Z,62.90
2022-11-18T06:37:17.431Z,62.00
2022-11-18T06:39:44.560Z,62.30
2022-11-18T06:42:32.102Z,61.90
2022-11-18T06:44:59.034Z,61.30
2022-11-18T06:47:25.915Z,60.40
2022-11-18T06:49:52.821Z,60.90
2022-11-18T06:52:19.671Z,61.50
2022-11-18T06:54:46.485Z,63.20
2022-11-18T06:57:13.254Z,61.60
2022-11-18T06:59:40.124Z,61.70
2022-11-18T07:02:06.924Z,62.10
2022-11-18T07:04:34.790Z,62.10
2022-11-18T07:07:01.717Z,62.60
2022-11-18T07:09:28.662Z,61.70
2022-11-18T07:11:55.519Z,63.20
2022-11-18T07:14:22.409Z,62.20
2022-11-18T07:16:49.378Z,63.40
2022-11-18T07:19:16.670Z,61.80
2022-11-18T07:21:43.886Z,62.50
2022-11-18T07:24:13.381Z,61.50
2022-11-18T07:26:40.502Z,62.00
2022-11-18T07:29:07.492Z,63.20
2022-11-18T07:31:37.469Z,63.40
2022-11-18T07:34:04.338Z,62.20
2022-11-18T07:36:35.575Z,61.50
2022-11-18T07:39:07.240Z,62.50
2022-11-18T07:41:35.498Z,62.10
2022-11-18T07:44:04.348Z,61.70
2022-11-18T07:46:33.962Z,61.60
2022-11-18T07:49:02.999Z,61.20
2022-11-18T07:51:34.465Z,61.30
2022-11-18T07:54:01.928Z,63.00
2022-11-18T07:56:28.742Z,63.30
2022-11-18T07:58:56.404Z,62.20
2022-11-18T08:01:25.178Z,62.60
2022-11-18T08:03:52.313Z,62.90
2022-11-18T08:06:19.741Z,61.80
2022-11-18T08:08:47.349Z,63.50
2022-11-18T08:11:21.930Z,63.60
2022-11-18T08:13:49.546Z,60.90
2022-11-18T08:16:24.880Z,61.50
2022-11-18T08:18:52.452Z,62.80
2022-11-18T08:21:21.107Z,63.00
2022-11-18T08:23:53.323Z,62.60
2022-11-18T08:26:20.323Z,64.00
2022-11-18T08:28:47.573Z,61.60
2022-11-18T08:31:26.138Z,61.60
2022-11-18T08:33:57.029Z,62.60
2022-11-18T08:36:26.346Z,61.70
2022-11-18T08:38:54.746Z,62.30
2022-11-18T08:41:37.072Z,62.90
2022-11-18T08:44:05.321Z,62.80
2022-11-18T08:46:33.143Z,61.80
2022-11-18T08:49:00.641Z,62.60
2022-11-18T08:51:27.835Z,61.40
2022-11-18T08:53:54.910Z,61.50
2022-11-18T08:56:24.108Z,63.20
2022-11-18T08:58:51.273Z,62.10
2022-11-18T09:01:18.189Z,61.20
2022-11-18T09:03:45.717Z,62.70
2022-11-18T09:06:21.430Z,61.60
2022-11-18T09:08:48.553Z,63.20
2022-11-18T09:11:17.842Z,61.10
2022-11-18T09:16:34.463Z,62.30
2022-11-18T09:19:18.548Z,61.80
2022-11-18T09:21:49.113Z,62.30
2022-11-18T09:24:16.498Z,60.00
2022-11-18T09:26:43.577Z,61.10
2022-11-18T09:29:11.768Z,61.30
2022-11-18T09:31:38.852Z,61.00
2022-11-18T09:34:05.971Z,61.10
2022-11-18T09:36:32.893Z,61.00
2022-11-18T09:39:00.263Z,60.80
2022-11-18T09:41:30.408Z,61.80
2022-11-18T09:44:30.844Z,62.00
2022-11-18T09:47:12.630Z,61.90
2022-11-18T09:49:42.260Z,61.70
2022-11-18T09:52:14.868Z,60.80
2022-11-18T09:54:41.966Z,61.00
2022-11-18T09:57:16.044Z,61.60
2022-11-18T09:59:44.124Z,61.00
2022-11-18T10:02:14.053Z,61.10
2022-11-18T10:04:41.061Z,61.60
2022-11-18T10:07:20.362Z,62.10
2022-11-18T10:09:49.855Z,63.10
2022-11-18T10:12:44.261Z,61.30
2022-11-18T10:15:34.691Z,61.40
2022-11-18T10:18:58.562Z,62.80
2022-11-18T10:21:32.920Z,63.60
2022-11-18T10:24:07.483Z,61.00
2022-11-18T10:26:40.046Z,60.60
2022-11-18T10:29:10.015Z,61.30
2022-11-18T10:31:39.305Z,61.20
2022-11-18T10:34:06.567Z,61.50
2022-11-18T10:36:34.343Z,60.80
2022-11-18T10:39:12.131Z,60.60
2022-11-18T10:41:47.678Z,60.20
2022-11-18T10:44:41.488Z,61.90
2022-11-18T10:47:24.903Z,60.90
2022-11-18T10:49:53.403Z,62.30
2022-11-18T10:52:20.994Z,61.00
2022-11-18T10:55:07.739Z,60.60
2022-11-18T10:57:40.164Z,60.60
2022-11-18T11:00:27.403Z,59.50
2022-11-18T11:02:54.276Z,59.20
2022-11-18T11:05:23.338Z,61.50
2022-11-18T11:08:36.299Z,61.00
2022-11-18T11:11:04.515Z,59.50
2022-11-18T11:13:32.520Z,60.20
2022-11-18T11:16:03.519Z,60.80
2022-11-18T11:18:43.013Z,59.40
2022-11-18T11:21:18.515Z,59.80
2022-11-18T11:23:46.356Z,60.10
2022-11-18T11:29:33.726Z,61.10
2022-11-18T11:32:24.728Z,60.40
2022-11-18T11:35:07.088Z,60.30
2022-11-18T11:37:55.475Z,60.40
2022-11-18T11:40:42.560Z,61.00
2022-11-18T11:43:48.138Z,61.10
2022-11-18T11:46:28.290Z,62.20
2022-11-18T11:49:13.995Z,60.90
2022-11-18T11:51:58.394Z,60.10
2022-11-18T11:55:06.463Z,60.90
2022-11-18T11:58:00.877Z,60.60
2022-11-18T12:00:29.921Z,59.70
2022-11-18T12:03:28.775Z,60.10
2022-11-18T12:05:55.583Z,60.90
2022-11-18T12:08:30.519Z,59.70
2022-11-18T12:11:22.688Z,60.10
2022-11-18T12:14:11.915Z,60.40
2022-11-18T12:17:04.263Z,60.30
2022-11-18T12:19:31.395Z,61.20
2022-11-18T12:22:00.627Z,60.50
2022-11-18T12:24:32.357Z,60.20
2022-11-18T12:27:05.989Z,60.00
2022-11-18T12:29:49.266Z,60.10
2022-11-18T12:32:36.392Z,61.10
2022-11-18T12:35:25.112Z,60.20
2022-11-18T12:37:52.161Z,59.70
2022-11-18T12:40:52.308Z,60.70
2022-11-18T12:43:45.420Z,59.80
2022-11-18T12:46:44.452Z,60.40
2022-11-18T12:49:21.419Z,61.40
2022-11-18T12:51:59.653Z,60.20
2022-11-18T12:54:32.429Z,61.10
2022-11-18T12:57:25.584Z,60.20
2022-11-18T12:59:53.299Z,61.10
2022-11-18T13:02:30.619Z,60.30
2022-11-18T13:05:34.554Z,60.90
2022-11-18T13:08:17.037Z,59.60
2022-11-18T13:10:43.844Z,59.70
2022-11-18T13:13:27.397Z,60.80
2022-11-18T13:16:16.354Z,61.40
2022-11-18T13:18:53.799Z,61.80
2022-11-18T13:21:41.867Z,60.00
2022-11-18T13:24:12.691Z,60.70
2022-11-18T13:26:42.827Z,60.40
2022-11-18T13:29:22.203Z,60.40
2022-11-18T13:31:54.986Z,61.00
2022-11-18T13:34:25.891Z,60.90
2022-11-18T13:36:54.314Z,59.80
2022-11-18T13:39:23.499Z,60.00
2022-11-18T13:42:03.786Z,59.80
2022-11-18T13:44:37.836Z,59.50
2022-11-18T13:47:25.912Z,60.30
2022-11-18T13:50:02.584Z,60.30
2022-11-18T13:52:35.914Z,61.90
2022-11-18T13:55:09.529Z,60.10
2022-11-18T13:57:37.254Z,60.90
2022-11-18T14:00:08.362Z,61.10
2022-11-18T14:02:46.213Z,60.40
2022-11-18T14:05:21.660Z,61.10
2022-11-18T14:08:01.799Z,61.20
2022-11-18T14:10:39.673Z,59.80
2022-11-18T14:13:36.534Z,61.00
2022-11-18T14:16:23.597Z,61.40
2022-11-18T14:18:51.899Z,62.50
2022-11-18T14:21:33.511Z,61.50
2022-11-18T14:24:01.270Z,61.40
2022-11-18T14:26:30.278Z,61.90
2022-11-18T14:29:05.293Z,62.50
2022-11-18T14:31:32.293Z,62.60
2022-11-18T14:34:25.614Z,62.50
2022-11-18T14:36:53.530Z,62.20
2022-11-18T14:39:29.123Z,62.60
2022-11-18T14:41:57.509Z,62.90
2022-11-18T14:44:26.812Z,62.70
2022-11-18T14:46:59.067Z,62.70
2022-11-18T14:49:27.555Z,62.20
2022-11-18T14:51:55.095Z,62.30
2022-11-18T14:54:27.958Z,62.50
2022-11-18T14:57:00.116Z,62.60
2022-11-18T14:59:27.024Z,62.30
2022-11-18T15:01:54.769Z,62.40
2022-11-18T15:04:22.426Z,62.00
2022-11-18T15:06:49.593Z,61.80
2022-11-18T15:09:16.663Z,62.00
2022-11-18T15:11:44.730Z,61.60
2022-11-18T15:14:11.569Z,61.40
2022-11-18T15:16:38.483Z,61.00
2022-11-18T15:19:06.583Z,61.20
2022-11-18T15:21:33.518Z,61.30
2022-11-18T15:24:00.360Z,61.20
2022-11-18T15:26:35.935Z,61.90
2022-11-18T15:29:03.265Z,61.10
2022-11-18T15:31:30.235Z,61.40
2022-11-18T15:34:00.817Z,61.20
2022-11-18T15:36:30.505Z,60.60
2022-11-18T15:38:57.325Z,60.80
2022-11-18T15:41:27.086Z,60.80
2022-11-18T15:43:55.746Z,60.70
2022-11-18T15:46:24.898Z,60.60
2022-11-18T15:48:53.132Z,60.50
2022-11-18T15:51:20.410Z,60.70
2022-11-18T15:53:47.389Z,60.30
2022-11-18T15:56:25.361Z,60.90
2022-11-18T15:59:03.855Z,60.70
2022-11-18T16:01:36.644Z,60.60
2022-11-18T16:04:04.831Z,60.30
2022-11-18T16:06:32.365Z,60.50
2022-11-18T16:09:00.541Z,60.50
2022-11-18T16:11:47.648Z,60.20
2022-11-18T16:14:17.715Z,60.80
2022-11-18T16:16:46.908Z,61.60
2022-11-18T16:19:16.838Z,60.30
2022-11-18T16:21:49.198Z,60.30
2022-11-18T16:24:19.755Z,60.50
2022-11-18T16:26:47.289Z,60.30
2022-11-18T16:29:17.464Z,60.40
2022-11-18T16:31:50.965Z,60.60
2022-11-18T16:34:20.968Z,60.50
2022-11-18T16:36:52.192Z,60.70
2022-11-18T16:39:25.001Z,60.80
2022-11-18T16:41:54.840Z,60.80
2022-11-18T16:44:22.077Z,60.60
2022-11-18T16:46:51.012Z,60.90
2022-11-18T16:49:20.685Z,60.60
2022-11-18T16:51:50.355Z,60.80
2022-11-18T16:54:20.074Z,60.70
2022-11-18T16:56:47.939Z,61.10
2022-11-18T16:59:21.744Z,60.70
2022-11-18T17:01:50.483Z,60.70
2022-11-18T17:04:18.299Z,60.70
2022-11-18T17:06:48.736Z,61.30
2022-11-18T17:09:18.940Z,61.20
2022-11-18T17:11:46.646Z,60.40
2022-11-18T17:14:13.613Z,60.70
2022-11-18T17:16:40.827Z,60.90
2022-11-18T17:19:11.932Z,60.90
2022-11-18T17:21:39.527Z,61.60
2022-11-18T17:24:07.306Z,60.70
2022-11-18T17:26:34.649Z,60.70
2022-11-18T17:29:01.495Z,60.30
2022-11-18T17:31:28.369Z,60.50
2022-11-18T17:33:56.202Z,60.70
2022-11-18T17:36:25.277Z,61.00
2022-11-18T17:38:55.639Z,61.50
2022-11-18T17:41:43.752Z,60.60
2022-11-18T17:44:13.067Z,60.80
2022-11-18T17:46:40.344Z,61.20
2022-11-18T17:49:13.502Z,61.10
2022-11-18T17:51:40.597Z,60.10
2022-11-18T17:54:08.278Z,60.60
2022-11-18T17:56:35.383Z,60.70
2022-11-18T17:59:02.216Z,60.90
2022-11-18T18:01:29.117Z,60.50
2022-11-18T18:03:55.983Z,59.70
2022-11-18T18:06:23.260Z,59.30
2022-11-18T18:08:50.114Z,59.20
2022-11-18T18:11:19.248Z,59.40
2022-11-18T18:14:04.894Z,59.70
2022-11-18T18:16:33.568Z,59.50
2022-11-18T18:19:02.247Z,59.30
2022-11-18T18:21:29.482Z,59.50
2022-11-18T18:23:56.872Z,59.60
2022-11-18T18:26:29.676Z,59.60
2022-11-18T18:29:02.225Z,59.60
2022-11-18T18:31:30.884Z,59.80
2022-11-18T18:33:57.939Z,59.70
2022-11-18T18:36:25.291Z,59.70
2022-11-18T18:38:52.618Z,60.00
2022-11-18T18:41:23.345Z,60.70
2022-11-18T18:43:50.922Z,60.50
2022-11-18T18:46:30.524Z,60.60
2022-11-18T18:49:14.125Z,60.70
2022-11-18T18:51:46.303Z,61.00
2022-11-18T18:54:15.865Z,61.10
2022-11-18T18:56:43.334Z,61.40
2022-11-18T18:59:10.553Z,61.60
2022-11-18T19:01:38.486Z,61.50
2022-11-18T19:04:07.662Z,61.80
2022-11-18T19:06:58.885Z,61.80
2022-11-18T19:09:24.975Z,61.60
2022-11-18T19:12:10.930Z,61.40
2022-11-18T19:14:37.908Z,61.70
2022-11-18T19:17:10.074Z,61.60
2022-11-18T19:19:56.545Z,61.60
2022-11-18T19:22:23.544Z,61.50
2022-11-18T19:24:51.206Z,61.40
2022-11-18T19:27:19.309Z,61.60
2022-11-18T19:29:46.465Z,61.40
2022-11-18T19:32:14.095Z,59.90
2022-11-18T19:34:41.060Z,60.00
2022-11-18T19:37:08.007Z,60.00
2022-11-18T19:39:35.433Z,60.10
2022-11-18T19:42:02.584Z,63.90
2022-11-18T19:44:29.608Z,61.30
2022-11-18T19:46:56.434Z,61.20
2022-11-18T19:49:23.502Z,60.60
2022-11-18T19:51:50.512Z,60.70
2022-11-18T19:54:20.832Z,60.70
2022-11-18T19:56:47.749Z,60.90
2022-11-18T19:59:14.653Z,61.10
2022-11-18T20:01:41.609Z,61.00
2022-11-18T20:04:08.501Z,60.60
2022-11-18T20:06:36.677Z,60.30
2022-11-18T20:09:07.051Z,60.60
2022-11-18T20:11:34.435Z,60.60
2022-11-18T20:14:01.267Z,61.00
2022-11-18T20:16:28.278Z,61.00
2022-11-18T20:18:57.832Z,61.00
2022-11-18T20:21:26.209Z,61.40
2022-11-18T20:24:00.306Z,61.50
2022-11-18T20:26:38.719Z,61.50
2022-11-18T20:29:07.047Z,61.60
2022-11-18T20:31:34.694Z,61.70
2022-11-18T20:34:02.404Z,61.50
2022-11-18T20:36:31.830Z,61.80
2022-11-18T20:39:01.396Z,61.80
2022-11-18T20:41:32.344Z,61.80
2022-11-18T20:44:00.447Z,62.00
2022-11-18T20:46:27.728Z,61.80
2022-11-18T20:48:55.452Z,61.90
2022-11-18T20:51:24.818Z,61.80
2022-11-18T20:53:53.637Z,61.60
2022-11-18T20:56:22.995Z,61.40
2022-11-18T20:58:50.395Z,61.20
2022-11-18T21:01:25.918Z,62.00
2022-11-18T21:03:58.531Z,61.70
2022-11-18T21:06:28.146Z,60.70
2022-11-18T21:09:00.254Z,60.30
2022-11-18T21:11:27.927Z,60.00
2022-11-18T21:14:30.548Z,60.80
2022-11-18T21:17:01.486Z,60.50
2022-11-18T21:19:29.286Z,62.00
2022-11-18T21:21:56.550Z,61.50
2022-11-18T21:24:31.533Z,61.60
2022-11-18T21:26:59.834Z,61.60
2022-11-18T21:29:28.293Z,62.00
2022-11-18T21:31:55.524Z,61.80
2022-11-18T21:34:22.956Z,61.70
2022-11-18T21:36:54.326Z,61.20
2022-11-18T21:39:22.758Z,61.50
2022-11-18T21:41:55.308Z,61.30
2022-11-18T21:44:23.607Z,61.20
2022-11-18T21:46:50.528Z,61.30
2022-11-18T21:49:17.770Z,61.70
2022-11-18T21:51:45.383Z,61.40
2022-11-18T21:54:13.042Z,61.50
2022-11-18T21:56:39.993Z,61.30
2022-11-18T21:59:07.755Z,61.40
2022-11-18T22:01:35.056Z,61.60
2022-11-18T22:04:03.908Z,61.70
2022-11-18T22:06:33.606Z,62.10
2022-11-18T22:09:01.981Z,61.90
2022-11-18T22:11:28.986Z,61.90
2022-11-18T22:13:56.043Z,62.20
2022-11-18T22:16:24.413Z,62.10
2022-11-18T22:18:59.058Z,62.10
2022-11-18T22:21:28.169Z,62.00
2022-11-18T22:23:59.974Z,62.00
2022-11-18T22:26:28.022Z,62.10
2022-11-18T22:28:57.070Z,62.30
2022-11-18T22:31:25.534Z,62.40
2022-11-18T22:33:53.545Z,62.40
2022-11-18T22:36:23.024Z,62.20
2022-11-18T22:38:50.406Z,62.40
2022-11-18T22:41:43.976Z,62.50
2022-11-18T22:44:12.371Z,62.70
2022-11-18T22:46:40.886Z,62.60
2022-11-18T22:49:08.996Z,62.60
2022-11-18T22:51:36.981Z,62.30
2022-11-18T22:54:36.537Z,62.30
2022-11-18T22:56:54.146Z,62.70
2022-11-18T22:59:21.378Z,62.50
2022-11-18T23:01:50.640Z,62.70
2022-11-18T23:04:17.792Z,62.70
2022-11-18T23:06:44.626Z,62.30
2022-11-18T23:09:11.575Z,62.60
2022-11-18T23:11:56.948Z,62.40
2022-11-18T23:14:23.901Z,62.60
2022-11-18T23:16:50.830Z,62.60
2022-11-18T23:19:18.165Z,62.50
2022-11-18T23:21:45.688Z,62.50
2022-11-18T23:24:14.421Z,62.80
2022-11-18T23:26:42.230Z,62.70
2022-11-18T23:29:10.624Z,62.60
2022-11-18T23:31:40.803Z,62.70
2022-11-18T23:34:07.670Z,62.50
2022-11-18T23:36:34.501Z,62.60
2022-11-18T23:39:01.281Z,62.40
2022-11-18T23:41:28.076Z,62.60
2022-11-18T23:43:54.950Z,62.60
2022-11-18T23:46:22.021Z,62.70
2022-11-18T23:48:48.929Z,62.80
2022-11-18T23:51:18.024Z,62.50
2022-11-18T23:53:46.357Z,62.60
2022-11-18T23:56:15.415Z,62.80
2022-11-18T23:58:45.029Z,62.60
